• Join FlightAware (Why Join?)
  • Login
  • US Flag 
04:59AM EST


 

Airport Tracker/Info


-or-


 

Live Flight TrackerFlight Track Log ✈ N62568 ✈ 28-Apr-2012 ✈ KDED - KEVB

Flight Track Log - Related Links

Times and Time Zones

All times are in EDT time to prevent confusion due to time zone crossing. See the N62568 flight status page for this flight to view local times or setup timezone preferences in your user account.

Time Position Orientation Groundspeed Altitude Reporting Facility
EDT Latitude Longitude Course Direction KTS MPH feet Rate Location/Type
02:48PM 30.1289 -81.8814 152° Southeast 77 89 3,400  Level Jacksonville Center
02:50PM 30.1058 -81.8672 145° Southeast 97 112 3,400  Level Jacksonville Center
02:51PM 30.0828 -81.8483 158° South 100 115 3,400  Level Jacksonville Center
02:52PM 30.0575 -81.8367 158° South 93 107 3,500  Climbing Jacksonville Center
02:53PM 30.0325 -81.8250 157° South 100 115 3,500 -120 Level Jacksonville Center
02:54PM 29.9989 -81.8086 148° Southeast 108 124 3,300 -60 Descending Jacksonville Center
02:55PM 29.9758 -81.7919 149° Southeast 100 115 3,400  Climbing Jacksonville Center
02:56PM 29.9525 -81.7756 148° Southeast 97 112 3,400  Level Jacksonville Center
02:57PM 29.9294 -81.7589 146° Southeast 94 108 3,500 120 Climbing Jacksonville Center
02:58PM 29.9086 -81.7425 154° Southeast 94 108 3,700  Climbing Jacksonville Center
02:59PM 29.8792 -81.7261 160° South 104 120 3,500 -180 Descending Jacksonville Center
03:00PM 29.8561 -81.7167 154° Southeast 101 116 3,400 -60 Descending Jacksonville Center
03:01PM 29.8308 -81.7025 166° South 97 112 3,400  Level Jacksonville Center
03:01PM 29.8078 -81.6958 160° South 99 114 3,500  Climbing Jacksonville Center
03:03PM 29.7744 -81.6817 159° South 100 115 3,500  Level Jacksonville Center
03:04PM 29.7428 -81.6678 158° South 108 124 3,600  Climbing Jacksonville Center
03:05PM 29.7178 -81.6561 152° Southeast 102 117 3,500 -60 Descending Jacksonville Center
03:06PM 29.6906 -81.6397 161° South 105 121 3,500  Level Jacksonville Center
03:07PM 29.6611 -81.6283 160° South 104 120 3,500  Level Jacksonville Center
03:08PM 29.6339 -81.6167 149° Southeast 103 119 3,500  Level Jacksonville Center
03:09PM 29.6106 -81.6003 146° Southeast 95 109 3,500  Level Jacksonville Center
03:10PM 29.5897 -81.5839 146° Southeast 98 113 3,500  Level Jacksonville Center
03:11PM 29.5622 -81.5628 133° Southeast 109 125 3,500  Level Jacksonville Center
03:12PM 29.5411 -81.5367 142° Southeast 106 122 3,500  Level Jacksonville Center
03:13PM 29.5200 -81.5178 144° Southeast 105 121 3,500  Level Jacksonville Center
03:14PM 29.4947 -81.4967 136° Southeast 104 120 3,500  Level Jacksonville Center
03:15PM 29.4736 -81.4733 146° Southeast 109 125 3,500  Level Jacksonville Center
03:16PM 29.4464 -81.4522 133° Southeast 103 119 3,500  Level Jacksonville Center
03:17PM 29.4272 -81.4286 147° Southeast 95 109 3,500  Level Jacksonville Center
03:18PM 29.4019 -81.4100 146° Southeast 99 114 3,500  Level Jacksonville Center
03:19PM 29.3808 -81.3936 144° Southeast 98 113 3,500  Level Jacksonville Center
03:20PM 29.3578 -81.3747 142° Southeast 100 115 3,500  Level Jacksonville Center
03:21PM 29.3367 -81.3561 142° Southeast 99 114 3,500  Level Jacksonville Center
03:22PM 29.3156 -81.3375 146° Southeast 99 114 3,500  Level Jacksonville Center
03:23PM 29.2944 -81.3211 142° Southeast 97 112 3,500  Level Jacksonville Center
03:24PM 29.2711 -81.3000 145° Southeast 93 107 3,500  Level Jacksonville Center
03:25PM 29.2481 -81.2814 142° Southeast 98 113 3,500  Level Jacksonville Center
03:26PM 29.2269 -81.2628 146° Southeast 95 109 3,500  Level Jacksonville Center
03:27PM 29.2058 -81.2464 116° Southeast 97 112 3,500  Level Jacksonville Center
03:28PM 29.1928 -81.2156 121° Southeast 95 109 3,500 -240 Level Jacksonville Center
03:30PM 29.1781 -81.1872 118° Southeast 102 117 3,000 -480 Descending Jacksonville Center
03:31PM 29.1628 -81.1542 124° Southeast 103 119 2,500 -300 Descending Jacksonville Center
03:32PM 29.1478 -81.1283 121° Southeast 99 114 2,500  Level Jacksonville Center
03:33PM 29.1328 -81.1000 141° Southeast 94 108 2,500 -60 Level Jacksonville Center
03:34PM 29.1181 -81.0861 152° Southeast 90 104 2,400 -300 Descending Jacksonville Center
03:35PM 29.0950 -81.0722 145° Southeast 95 109 2,000 -540 Descending Jacksonville Center
03:36PM 29.0717 -81.0536 126° Southeast 102 117 1,400 -540 Descending Jacksonville Center
03:37PM 29.0567 -81.0303 112° Southeast 99 114 1,000 -360 Descending Jacksonville Center
03:38PM 29.0458 -80.9997 84° East 99 114 700 -300 Descending Jacksonville Center
03:39PM 29.0478 -80.9781 84° East 72 83 400 -300 Descending Jacksonville Center